sensor_id;sensor_type;location;lat;lon;timestamp;temperature;humidity
3186;DHT22;1604;53.700;10.252;2023-05-23T00:00:26;16.40;99.90
3186;DHT22;1604;53.700;10.252;2023-05-23T00:03:28;16.40;99.90
3186;DHT22;1604;53.700;10.252;2023-05-23T00:06:30;16.40;99.90
3186;DHT22;1604;53.700;10.252;2023-05-23T00:09:35;16.40;99.90
3186;DHT22;1604;53.700;10.252;2023-05-23T00:12:37;16.40;99.90
3186;DHT22;1604;53.700;10.252;2023-05-23T00:15:43;16.40;99.90
3186;DHT22;1604;53.700;10.252;2023-05-23T00:18:45;16.40;99.90
3186;DHT22;1604;53.700;10.252;2023-05-23T00:21:47;16.30;99.90
3186;DHT22;1604;53.700;10.252;2023-05-23T00:24:51;16.30;99.90
3186;DHT22;1604;53.700;10.252;2023-05-23T00:27:52;16.30;99.90
3186;DHT22;1604;53.700;10.252;2023-05-23T00:30:54;16.30;99.90
3186;DHT22;1604;53.700;10.252;2023-05-23T00:33:56;16.20;99.90
3186;DHT22;1604;53.700;10.252;2023-05-23T00:36:58;16.20;99.90
3186;DHT22;1604;53.700;10.252;2023-05-23T00:40:03;16.20;99.90
3186;DHT22;1604;53.700;10.252;2023-05-23T00:43:05;16.10;99.90
3186;DHT22;1604;53.700;10.252;2023-05-23T00:46:09;16.00;99.90
3186;DHT22;1604;53.700;10.252;2023-05-23T00:49:11;16.00;99.90
3186;DHT22;1604;53.700;10.252;2023-05-23T00:52:14;16.00;99.90
3186;DHT22;1604;53.700;10.252;2023-05-23T00:55:17;15.90;99.90
3186;DHT22;1604;53.700;10.252;2023-05-23T00:58:19;15.80;99.90
3186;DHT22;1604;53.700;10.252;2023-05-23T01:01:21;15.80;99.90
3186;DHT22;1604;53.700;10.252;2023-05-23T01:04:23;15.80;99.90
3186;DHT22;1604;53.700;10.252;2023-05-23T01:07:26;15.70;99.90
3186;DHT22;1604;53.700;10.252;2023-05-23T01:10:30;15.70;99.90
3186;DHT22;1604;53.700;10.252;2023-05-23T01:13:39;15.70;99.90
3186;DHT22;1604;53.700;10.252;2023-05-23T01:16:47;15.60;99.90
3186;DHT22;1604;53.700;10.252;2023-05-23T01:19:59;15.60;99.90
3186;DHT22;1604;53.700;10.252;2023-05-23T01:23:28;15.60;99.90
3186;DHT22;1604;53.700;10.252;2023-05-23T01:26:51;15.60;99.90
3186;DHT22;1604;53.700;10.252;2023-05-23T01:30:01;15.60;99.90
3186;DHT22;1604;53.700;10.252;2023-05-23T01:33:05;15.60;99.90
3186;DHT22;1604;53.700;10.252;2023-05-23T01:36:09;15.60;99.90
3186;DHT22;1604;53.700;10.252;2023-05-23T01:39:13;15.60;99.90
3186;DHT22;1604;53.700;10.252;2023-05-23T01:42:15;15.60;99.90
3186;DHT22;1604;53.700;10.252;2023-05-23T01:45:19;15.60;99.90
3186;DHT22;1604;53.700;10.252;2023-05-23T01:48:22;15.50;99.90
3186;DHT22;1604;53.700;10.252;2023-05-23T01:51:25;15.50;99.90
3186;DHT22;1604;53.700;10.252;2023-05-23T01:54:28;15.50;99.90
3186;DHT22;1604;53.700;10.252;2023-05-23T01:57:32;15.50;99.90
3186;DHT22;1604;53.700;10.252;2023-05-23T02:00:36;15.40;99.90
3186;DHT22;1604;53.700;10.252;2023-05-23T02:03:38;15.40;99.90
3186;DHT22;1604;53.700;10.252;2023-05-23T02:06:40;15.40;99.90
3186;DHT22;1604;53.700;10.252;2023-05-23T02:09:42;15.40;99.90
3186;DHT22;1604;53.700;10.252;2023-05-23T02:12:44;15.40;99.90
3186;DHT22;1604;53.700;10.252;2023-05-23T02:15:47;15.40;99.90
3186;DHT22;1604;53.700;10.252;2023-05-23T02:18:49;15.40;99.90
3186;DHT22;1604;53.700;10.252;2023-05-23T02:21:52;15.40;99.90
3186;DHT22;1604;53.700;10.252;2023-05-23T02:24:54;15.40;99.90
3186;DHT22;1604;53.700;10.252;2023-05-23T02:27:56;15.40;99.90
3186;DHT22;1604;53.700;10.252;2023-05-23T02:30:59;15.40;99.90
3186;DHT22;1604;53.700;10.252;2023-05-23T02:34:01;15.40;99.90
3186;DHT22;1604;53.700;10.252;2023-05-23T02:37:03;15.40;99.90
3186;DHT22;1604;53.700;10.252;2023-05-23T02:40:06;15.40;99.90
3186;DHT22;1604;53.700;10.252;2023-05-23T02:43:08;15.40;99.90
3186;DHT22;1604;53.700;10.252;2023-05-23T02:46:11;15.40;99.90
3186;DHT22;1604;53.700;10.252;2023-05-23T02:49:14;15.50;99.90
3186;DHT22;1604;53.700;10.252;2023-05-23T02:52:16;15.50;99.90
3186;DHT22;1604;53.700;10.252;2023-05-23T02:55:18;15.50;99.90
3186;DHT22;1604;53.700;10.252;2023-05-23T02:58:19;15.50;99.90
3186;DHT22;1604;53.700;10.252;2023-05-23T03:01:23;15.50;99.90
3186;DHT22;1604;53.700;10.252;2023-05-23T03:04:26;15.50;99.90
3186;DHT22;1604;53.700;10.252;2023-05-23T03:07:29;15.50;99.90
3186;DHT22;1604;53.700;10.252;2023-05-23T03:10:33;15.50;99.90
3186;DHT22;1604;53.700;10.252;2023-05-23T03:13:35;15.50;99.90
3186;DHT22;1604;53.700;10.252;2023-05-23T03:16:39;15.60;99.90
3186;DHT22;1604;53.700;10.252;2023-05-23T03:19:41;15.60;99.90
3186;DHT22;1604;53.700;10.252;2023-05-23T03:22:43;15.60;99.90
3186;DHT22;1604;53.700;10.252;2023-05-23T03:25:45;15.60;99.90
3186;DHT22;1604;53.700;10.252;2023-05-23T03:28:47;15.60;99.90
3186;DHT22;1604;53.700;10.252;2023-05-23T03:31:53;15.60;99.90
3186;DHT22;1604;53.700;10.252;2023-05-23T03:34:55;15.50;99.90
3186;DHT22;1604;53.700;10.252;2023-05-23T03:37:57;15.50;99.90
3186;DHT22;1604;53.700;10.252;2023-05-23T03:40:58;15.50;99.90
3186;DHT22;1604;53.700;10.252;2023-05-23T03:44:00;15.50;99.90
3186;DHT22;1604;53.700;10.252;2023-05-23T03:47:04;15.40;99.90
3186;DHT22;1604;53.700;10.252;2023-05-23T03:50:07;15.40;99.90
3186;DHT22;1604;53.700;10.252;2023-05-23T03:53:09;15.30;99.90
3186;DHT22;1604;53.700;10.252;2023-05-23T03:56:11;15.30;99.90
3186;DHT22;1604;53.700;10.252;2023-05-23T03:59:13;15.30;99.90
3186;DHT22;1604;53.700;10.252;2023-05-23T04:02:16;15.30;99.90
3186;DHT22;1604;53.700;10.252;2023-05-23T04:05:21;15.20;99.90
3186;DHT22;1604;53.700;10.252;2023-05-23T04:08:23;15.10;99.90
3186;DHT22;1604;53.700;10.252;2023-05-23T04:11:25;15.10;99.90
3186;DHT22;1604;53.700;10.252;2023-05-23T04:14:27;15.00;99.90
3186;DHT22;1604;53.700;10.252;2023-05-23T04:17:30;15.00;99.90
3186;DHT22;1604;53.700;10.252;2023-05-23T04:20:32;15.00;99.90
3186;DHT22;1604;53.700;10.252;2023-05-23T04:23:34;14.90;99.90
3186;DHT22;1604;53.700;10.252;2023-05-23T04:26:37;14.80;99.90
3186;DHT22;1604;53.700;10.252;2023-05-23T04:29:39;14.80;99.90
3186;DHT22;1604;53.700;10.252;2023-05-23T04:32:42;14.80;99.90
3186;DHT22;1604;53.700;10.252;2023-05-23T04:35:44;14.80;99.90
3186;DHT22;1604;53.700;10.252;2023-05-23T04:38:46;14.70;99.90
3186;DHT22;1604;53.700;10.252;2023-05-23T04:41:48;14.70;99.90
3186;DHT22;1604;53.700;10.252;2023-05-23T04:44:51;14.70;99.90
3186;DHT22;1604;53.700;10.252;2023-05-23T04:47:56;14.70;99.90
3186;DHT22;1604;53.700;10.252;2023-05-23T04:50:58;14.60;99.90
3186;DHT22;1604;53.700;10.252;2023-05-23T04:54:01;14.60;99.90
3186;DHT22;1604;53.700;10.252;2023-05-23T04:57:03;14.60;99.90
3186;DHT22;1604;53.700;10.252;2023-05-23T05:00:06;14.50;99.90
3186;DHT22;1604;53.700;10.252;2023-05-23T05:03:11;14.50;99.90
3186;DHT22;1604;53.700;10.252;2023-05-23T05:06:13;14.40;99.90
3186;DHT22;1604;53.700;10.252;2023-05-23T05:09:15;14.40;99.90
3186;DHT22;1604;53.700;10.252;2023-05-23T05:12:18;14.40;99.90
3186;DHT22;1604;53.700;10.252;2023-05-23T05:15:20;14.40;99.90
3186;DHT22;1604;53.700;10.252;2023-05-23T05:18:23;14.40;99.90
3186;DHT22;1604;53.700;10.252;2023-05-23T05:21:26;14.30;99.90
3186;DHT22;1604;53.700;10.252;2023-05-23T05:24:28;14.30;99.90
3186;DHT22;1604;53.700;10.252;2023-05-23T05:27:30;14.30;99.90
3186;DHT22;1604;53.700;10.252;2023-05-23T05:30:32;14.20;99.90
3186;DHT22;1604;53.700;10.252;2023-05-23T05:33:36;14.20;99.90
3186;DHT22;1604;53.700;10.252;2023-05-23T05:36:38;14.20;99.90
3186;DHT22;1604;53.700;10.252;2023-05-23T05:39:45;14.20;99.90
3186;DHT22;1604;53.700;10.252;2023-05-23T05:42:49;14.20;99.90
3186;DHT22;1604;53.700;10.252;2023-05-23T05:45:51;14.20;99.90
3186;DHT22;1604;53.700;10.252;2023-05-23T05:48:54;14.20;99.90
3186;DHT22;1604;53.700;10.252;2023-05-23T05:51:56;14.20;99.90
3186;DHT22;1604;53.700;10.252;2023-05-23T05:54:59;14.20;99.90
3186;DHT22;1604;53.700;10.252;2023-05-23T05:58:01;14.20;99.90
3186;DHT22;1604;53.700;10.252;2023-05-23T06:01:03;14.10;99.90
3186;DHT22;1604;53.700;10.252;2023-05-23T06:04:07;14.10;99.90
3186;DHT22;1604;53.700;10.252;2023-05-23T06:07:08;14.20;99.90
3186;DHT22;1604;53.700;10.252;2023-05-23T06:10:11;14.20;99.90
3186;DHT22;1604;53.700;10.252;2023-05-23T06:13:13;14.20;99.90
3186;DHT22;1604;53.700;10.252;2023-05-23T06:16:15;14.20;99.90
3186;DHT22;1604;53.700;10.252;2023-05-23T06:19:18;14.20;99.90
3186;DHT22;1604;53.700;10.252;2023-05-23T06:22:20;14.10;99.90
3186;DHT22;1604;53.700;10.252;2023-05-23T06:25:22;14.20;99.90
3186;DHT22;1604;53.700;10.252;2023-05-23T06:28:24;14.20;99.90
3186;DHT22;1604;53.700;10.252;2023-05-23T06:31:26;14.20;99.90
3186;DHT22;1604;53.700;10.252;2023-05-23T06:34:30;14.20;99.90
3186;DHT22;1604;53.700;10.252;2023-05-23T06:37:31;14.20;99.90
3186;DHT22;1604;53.700;10.252;2023-05-23T06:40:33;14.20;99.90
3186;DHT22;1604;53.700;10.252;2023-05-23T06:43:35;14.20;99.90
3186;DHT22;1604;53.700;10.252;2023-05-23T06:46:37;14.20;99.90
3186;DHT22;1604;53.700;10.252;2023-05-23T06:49:41;14.20;99.90
3186;DHT22;1604;53.700;10.252;2023-05-23T06:52:43;14.20;99.90
3186;DHT22;1604;53.700;10.252;2023-05-23T06:55:46;14.20;99.90
3186;DHT22;1604;53.700;10.252;2023-05-23T06:58:48;14.20;99.90
3186;DHT22;1604;53.700;10.252;2023-05-23T07:01:50;14.20;99.90
3186;DHT22;1604;53.700;10.252;2023-05-23T07:04:53;14.20;99.90
3186;DHT22;1604;53.700;10.252;2023-05-23T07:07:55;14.30;99.90
3186;DHT22;1604;53.700;10.252;2023-05-23T07:10:57;14.30;99.90
3186;DHT22;1604;53.700;10.252;2023-05-23T07:13:58;14.30;99.90
3186;DHT22;1604;53.700;10.252;2023-05-23T07:17:00;14.40;99.90
3186;DHT22;1604;53.700;10.252;2023-05-23T07:20:05;14.40;99.90
3186;DHT22;1604;53.700;10.252;2023-05-23T07:23:07;14.40;99.90
3186;DHT22;1604;53.700;10.252;2023-05-23T07:26:09;14.40;99.90
3186;DHT22;1604;53.700;10.252;2023-05-23T07:29:11;14.40;99.90
3186;DHT22;1604;53.700;10.252;2023-05-23T07:32:13;14.40;99.90
3186;DHT22;1604;53.700;10.252;2023-05-23T07:35:16;14.40;99.90
3186;DHT22;1604;53.700;10.252;2023-05-23T07:38:25;14.30;99.90
3186;DHT22;1604;53.700;10.252;2023-05-23T07:41:27;14.30;99.90
3186;DHT22;1604;53.700;10.252;2023-05-23T07:44:29;14.40;99.90
3186;DHT22;1604;53.700;10.252;2023-05-23T07:47:31;14.40;99.90
3186;DHT22;1604;53.700;10.252;2023-05-23T07:50:34;14.40;99.90
3186;DHT22;1604;53.700;10.252;2023-05-23T07:53:36;14.30;99.90
3186;DHT22;1604;53.700;10.252;2023-05-23T07:56:39;14.40;99.90
3186;DHT22;1604;53.700;10.252;2023-05-23T07:59:41;14.40;99.90
3186;DHT22;1604;53.700;10.252;2023-05-23T08:02:43;14.40;99.90
3186;DHT22;1604;53.700;10.252;2023-05-23T08:05:46;14.40;99.90
3186;DHT22;1604;53.700;10.252;2023-05-23T08:08:48;14.40;99.90
3186;DHT22;1604;53.700;10.252;2023-05-23T08:11:50;14.40;99.90
3186;DHT22;1604;53.700;10.252;2023-05-23T08:14:52;14.40;99.90
3186;DHT22;1604;53.700;10.252;2023-05-23T08:17:54;14.40;99.90
3186;DHT22;1604;53.700;10.252;2023-05-23T08:20:58;14.40;99.90
3186;DHT22;1604;53.700;10.252;2023-05-23T08:24:02;14.40;99.90
3186;DHT22;1604;53.700;10.252;2023-05-23T08:27:04;14.40;99.90
3186;DHT22;1604;53.700;10.252;2023-05-23T08:30:08;14.50;99.90
3186;DHT22;1604;53.700;10.252;2023-05-23T08:33:10;14.50;99.90
3186;DHT22;1604;53.700;10.252;2023-05-23T08:36:13;14.50;99.90
3186;DHT22;1604;53.700;10.252;2023-05-23T08:39:15;14.50;99.90
3186;DHT22;1604;53.700;10.252;2023-05-23T08:42:18;14.40;99.90
3186;DHT22;1604;53.700;10.252;2023-05-23T08:45:20;14.40;99.90
3186;DHT22;1604;53.700;10.252;2023-05-23T08:48:25;14.40;99.90
3186;DHT22;1604;53.700;10.252;2023-05-23T08:51:28;14.40;99.90
3186;DHT22;1604;53.700;10.252;2023-05-23T08:54:31;14.40;99.90
3186;DHT22;1604;53.700;10.252;2023-05-23T08:57:34;14.40;99.90
3186;DHT22;1604;53.700;10.252;2023-05-23T09:00:37;14.50;99.90
3186;DHT22;1604;53.700;10.252;2023-05-23T09:03:39;14.50;99.90
3186;DHT22;1604;53.700;10.252;2023-05-23T09:06:46;14.50;99.90
3186;DHT22;1604;53.700;10.252;2023-05-23T09:09:48;14.60;99.90
3186;DHT22;1604;53.700;10.252;2023-05-23T09:12:50;14.60;99.90
3186;DHT22;1604;53.700;10.252;2023-05-23T09:15:56;14.60;99.90
3186;DHT22;1604;53.700;10.252;2023-05-23T09:19:09;14.60;99.90
3186;DHT22;1604;53.700;10.252;2023-05-23T09:22:12;14.60;99.90
3186;DHT22;1604;53.700;10.252;2023-05-23T09:25:14;14.40;99.90
3186;DHT22;1604;53.700;10.252;2023-05-23T09:28:17;14.30;99.90
3186;DHT22;1604;53.700;10.252;2023-05-23T09:31:25;14.30;99.90
3186;DHT22;1604;53.700;10.252;2023-05-23T09:34:28;14.20;99.90
3186;DHT22;1604;53.700;10.252;2023-05-23T09:37:33;14.10;99.90
3186;DHT22;1604;53.700;10.252;2023-05-23T09:40:35;14.00;99.90
3186;DHT22;1604;53.700;10.252;2023-05-23T09:43:37;13.90;99.90
3186;DHT22;1604;53.700;10.252;2023-05-23T09:46:39;13.80;99.90
3186;DHT22;1604;53.700;10.252;2023-05-23T09:49:42;13.80;99.90
3186;DHT22;1604;53.700;10.252;2023-05-23T09:52:46;13.70;99.90
3186;DHT22;1604;53.700;10.252;2023-05-23T09:55:50;13.60;99.90
3186;DHT22;1604;53.700;10.252;2023-05-23T09:58:53;13.50;99.90
3186;DHT22;1604;53.700;10.252;2023-05-23T10:01:56;13.50;99.90
3186;DHT22;1604;53.700;10.252;2023-05-23T10:04:59;13.40;99.90
3186;DHT22;1604;53.700;10.252;2023-05-23T10:08:06;13.30;99.90
3186;DHT22;1604;53.700;10.252;2023-05-23T10:14:54;13.10;99.90
3186;DHT22;1604;53.700;10.252;2023-05-23T10:18:14;13.00;99.90
3186;DHT22;1604;53.700;10.252;2023-05-23T10:21:18;12.90;99.90
3186;DHT22;1604;53.700;10.252;2023-05-23T10:24:25;12.90;99.90
3186;DHT22;1604;53.700;10.252;2023-05-23T10:27:27;12.90;99.90
3186;DHT22;1604;53.700;10.252;2023-05-23T10:30:30;12.90;99.90
3186;DHT22;1604;53.700;10.252;2023-05-23T10:33:35;12.80;99.90
3186;DHT22;1604;53.700;10.252;2023-05-23T10:36:44;12.80;99.90
3186;DHT22;1604;53.700;10.252;2023-05-23T10:39:56;12.80;99.90
3186;DHT22;1604;53.700;10.252;2023-05-23T10:43:04;12.70;99.90
3186;DHT22;1604;53.700;10.252;2023-05-23T10:46:07;12.70;99.90
3186;DHT22;1604;53.700;10.252;2023-05-23T10:49:09;12.70;99.90
3186;DHT22;1604;53.700;10.252;2023-05-23T10:52:13;12.70;99.90
3186;DHT22;1604;53.700;10.252;2023-05-23T10:55:19;12.70;99.90
3186;DHT22;1604;53.700;10.252;2023-05-23T10:58:21;12.70;99.90
3186;DHT22;1604;53.700;10.252;2023-05-23T11:01:24;12.70;99.90
3186;DHT22;1604;53.700;10.252;2023-05-23T11:04:27;12.60;99.90
3186;DHT22;1604;53.700;10.252;2023-05-23T11:07:31;12.70;99.90
3186;DHT22;1604;53.700;10.252;2023-05-23T11:10:50;12.70;99.90
3186;DHT22;1604;53.700;10.252;2023-05-23T11:13:54;12.70;99.90
3186;DHT22;1604;53.700;10.252;2023-05-23T11:16:57;12.70;99.90
3186;DHT22;1604;53.700;10.252;2023-05-23T11:20:02;12.70;99.90
3186;DHT22;1604;53.700;10.252;2023-05-23T11:23:07;12.70;99.90
3186;DHT22;1604;53.700;10.252;2023-05-23T11:26:31;12.80;99.90
3186;DHT22;1604;53.700;10.252;2023-05-23T11:29:33;12.80;99.90
3186;DHT22;1604;53.700;10.252;2023-05-23T11:32:35;12.90;99.90
3186;DHT22;1604;53.700;10.252;2023-05-23T11:35:38;13.00;99.90
3186;DHT22;1604;53.700;10.252;2023-05-23T11:38:40;13.10;99.90
3186;DHT22;1604;53.700;10.252;2023-05-23T11:41:43;13.20;99.90
3186;DHT22;1604;53.700;10.252;2023-05-23T11:44:48;13.20;99.90
3186;DHT22;1604;53.700;10.252;2023-05-23T11:47:50;13.30;99.90
3186;DHT22;1604;53.700;10.252;2023-05-23T11:50:53;13.40;99.90
3186;DHT22;1604;53.700;10.252;2023-05-23T11:54:00;13.60;99.90
3186;DHT22;1604;53.700;10.252;2023-05-23T11:57:03;13.80;99.90
3186;DHT22;1604;53.700;10.252;2023-05-23T12:00:07;13.90;99.90
3186;DHT22;1604;53.700;10.252;2023-05-23T12:03:10;14.10;99.90
3186;DHT22;1604;53.700;10.252;2023-05-23T12:06:14;14.20;99.90
3186;DHT22;1604;53.700;10.252;2023-05-23T12:09:16;14.40;99.90
3186;DHT22;1604;53.700;10.252;2023-05-23T12:12:20;14.60;99.90
3186;DHT22;1604;53.700;10.252;2023-05-23T12:15:25;14.90;99.90
3186;DHT22;1604;53.700;10.252;2023-05-23T12:18:29;15.30;99.20
3186;DHT22;1604;53.700;10.252;2023-05-23T12:21:41;15.50;98.80
3186;DHT22;1604;53.700;10.252;2023-05-23T12:24:46;15.70;98.90
3186;DHT22;1604;53.700;10.252;2023-05-23T12:27:49;15.90;98.00
3186;DHT22;1604;53.700;10.252;2023-05-23T12:30:52;16.00;96.50
3186;DHT22;1604;53.700;10.252;2023-05-23T12:33:55;16.30;94.90
3186;DHT22;1604;53.700;10.252;2023-05-23T12:36:59;16.40;94.30
3186;DHT22;1604;53.700;10.252;2023-05-23T12:40:13;16.30;91.00
3186;DHT22;1604;53.700;10.252;2023-05-23T12:43:16;16.20;91.70
3186;DHT22;1604;53.700;10.252;2023-05-23T12:46:19;16.20;92.00
3186;DHT22;1604;53.700;10.252;2023-05-23T12:49:21;16.20;92.00
3186;DHT22;1604;53.700;10.252;2023-05-23T12:52:23;16.30;91.10
3186;DHT22;1604;53.700;10.252;2023-05-23T12:55:25;16.40;91.10
3186;DHT22;1604;53.700;10.252;2023-05-23T12:58:28;16.60;88.20
3186;DHT22;1604;53.700;10.252;2023-05-23T13:01:30;16.60;89.00
3186;DHT22;1604;53.700;10.252;2023-05-23T13:04:33;16.40;89.50
3186;DHT22;1604;53.700;10.252;2023-05-23T13:07:35;16.50;90.10
3186;DHT22;1604;53.700;10.252;2023-05-23T13:10:38;16.60;88.40
3186;DHT22;1604;53.700;10.252;2023-05-23T13:13:43;16.70;89.30
3186;DHT22;1604;53.700;10.252;2023-05-23T13:16:45;16.70;86.10
3186;DHT22;1604;53.700;10.252;2023-05-23T13:19:46;16.60;86.40
3186;DHT22;1604;53.700;10.252;2023-05-23T13:22:48;16.40;87.00
3186;DHT22;1604;53.700;10.252;2023-05-23T13:25:51;16.40;86.40
3186;DHT22;1604;53.700;10.252;2023-05-23T13:28:54;16.40;87.30
3186;DHT22;1604;53.700;10.252;2023-05-23T13:31:56;16.50;87.30
3186;DHT22;1604;53.700;10.252;2023-05-23T13:34:58;16.50;86.20
3186;DHT22;1604;53.700;10.252;2023-05-23T13:38:00;16.60;85.00
3186;DHT22;1604;53.700;10.252;2023-05-23T13:41:02;16.50;83.80
3186;DHT22;1604;53.700;10.252;2023-05-23T13:44:05;16.50;82.80
3186;DHT22;1604;53.700;10.252;2023-05-23T13:47:11;16.50;84.70
3186;DHT22;1604;53.700;10.252;2023-05-23T13:50:14;16.50;82.20
3186;DHT22;1604;53.700;10.252;2023-05-23T13:53:15;16.40;83.60
3186;DHT22;1604;53.700;10.252;2023-05-23T13:56:17;16.40;83.80
3186;DHT22;1604;53.700;10.252;2023-05-23T13:59:21;16.40;83.50
3186;DHT22;1604;53.700;10.252;2023-05-23T14:02:23;16.40;82.60
3186;DHT22;1604;53.700;10.252;2023-05-23T14:05:25;16.40;82.80
3186;DHT22;1604;53.700;10.252;2023-05-23T14:08:27;16.30;80.50
3186;DHT22;1604;53.700;10.252;2023-05-23T14:11:29;16.30;81.30
3186;DHT22;1604;53.700;10.252;2023-05-23T14:14:32;16.10;80.10
3186;DHT22;1604;53.700;10.252;2023-05-23T14:17:34;16.10;82.00
3186;DHT22;1604;53.700;10.252;2023-05-23T14:20:36;16.00;82.40
3186;DHT22;1604;53.700;10.252;2023-05-23T14:23:38;16.00;82.50
3186;DHT22;1604;53.700;10.252;2023-05-23T14:26:40;15.90;82.70
3186;DHT22;1604;53.700;10.252;2023-05-23T14:29:43;15.90;84.30
3186;DHT22;1604;53.700;10.252;2023-05-23T14:32:46;15.90;82.00
3186;DHT22;1604;53.700;10.252;2023-05-23T14:35:48;15.80;82.80
3186;DHT22;1604;53.700;10.252;2023-05-23T14:38:50;15.70;83.20
3186;DHT22;1604;53.700;10.252;2023-05-23T14:41:52;15.80;85.00
3186;DHT22;1604;53.700;10.252;2023-05-23T14:44:55;15.80;82.40
3186;DHT22;1604;53.700;10.252;2023-05-23T14:47:57;15.80;83.80
3186;DHT22;1604;53.700;10.252;2023-05-23T14:51:03;15.70;85.10
3186;DHT22;1604;53.700;10.252;2023-05-23T14:54:06;15.70;83.40
3186;DHT22;1604;53.700;10.252;2023-05-23T14:57:09;15.60;82.80
3186;DHT22;1604;53.700;10.252;2023-05-23T15:00:13;15.50;82.10
3186;DHT22;1604;53.700;10.252;2023-05-23T15:03:15;15.40;83.60
3186;DHT22;1604;53.700;10.252;2023-05-23T15:06:17;15.40;83.60
3186;DHT22;1604;53.700;10.252;2023-05-23T15:09:19;15.40;82.60
3186;DHT22;1604;53.700;10.252;2023-05-23T15:12:21;15.30;85.30
3186;DHT22;1604;53.700;10.252;2023-05-23T15:15:24;15.30;85.90
3186;DHT22;1604;53.700;10.252;2023-05-23T15:18:33;15.30;86.20
3186;DHT22;1604;53.700;10.252;2023-05-23T15:21:35;15.40;85.90
3186;DHT22;1604;53.700;10.252;2023-05-23T15:24:37;15.30;84.00
3186;DHT22;1604;53.700;10.252;2023-05-23T15:27:39;15.30;83.50
3186;DHT22;1604;53.700;10.252;2023-05-23T15:30:43;15.20;82.90
3186;DHT22;1604;53.700;10.252;2023-05-23T15:33:45;15.20;84.00
3186;DHT22;1604;53.700;10.252;2023-05-23T15:36:47;15.20;83.10
3186;DHT22;1604;53.700;10.252;2023-05-23T15:39:50;15.20;81.90
3186;DHT22;1604;53.700;10.252;2023-05-23T15:42:52;15.00;82.30
3186;DHT22;1604;53.700;10.252;2023-05-23T15:45:55;14.90;82.60
3186;DHT22;1604;53.700;10.252;2023-05-23T15:48:57;14.80;83.40
3186;DHT22;1604;53.700;10.252;2023-05-23T15:51:59;14.70;83.20
3186;DHT22;1604;53.700;10.252;2023-05-23T15:55:01;14.60;84.70
3186;DHT22;1604;53.700;10.252;2023-05-23T15:58:05;14.50;86.20
3186;DHT22;1604;53.700;10.252;2023-05-23T16:01:08;14.40;87.00
3186;DHT22;1604;53.700;10.252;2023-05-23T16:04:10;14.30;87.00
3186;DHT22;1604;53.700;10.252;2023-05-23T16:07:12;14.20;86.40
3186;DHT22;1604;53.700;10.252;2023-05-23T16:10:14;14.20;88.10
3186;DHT22;1604;53.700;10.252;2023-05-23T16:13:16;14.10;86.50
3186;DHT22;1604;53.700;10.252;2023-05-23T16:16:19;14.10;86.10
3186;DHT22;1604;53.700;10.252;2023-05-23T16:19:21;14.00;87.10
3186;DHT22;1604;53.700;10.252;2023-05-23T16:22:23;14.00;87.90
3186;DHT22;1604;53.700;10.252;2023-05-23T16:25:25;14.00;85.90
3186;DHT22;1604;53.700;10.252;2023-05-23T16:28:27;13.90;87.50
3186;DHT22;1604;53.700;10.252;2023-05-23T16:31:30;14.00;88.80
3186;DHT22;1604;53.700;10.252;2023-05-23T16:34:32;14.10;86.50
3186;DHT22;1604;53.700;10.252;2023-05-23T16:37:35;14.10;85.30
3186;DHT22;1604;53.700;10.252;2023-05-23T16:40:37;14.10;85.70
3186;DHT22;1604;53.700;10.252;2023-05-23T16:43:39;14.00;84.20
3186;DHT22;1604;53.700;10.252;2023-05-23T16:46:42;14.00;84.50
3186;DHT22;1604;53.700;10.252;2023-05-23T16:49:44;13.90;84.50
3186;DHT22;1604;53.700;10.252;2023-05-23T16:52:46;13.80;84.00
3186;DHT22;1604;53.700;10.252;2023-05-23T16:55:48;13.70;83.50
3186;DHT22;1604;53.700;10.252;2023-05-23T16:58:49;13.70;85.20
3186;DHT22;1604;53.700;10.252;2023-05-23T17:01:53;13.70;85.80
3186;DHT22;1604;53.700;10.252;2023-05-23T17:04:55;13.60;85.60
3186;DHT22;1604;53.700;10.252;2023-05-23T17:07:57;13.60;86.60
3186;DHT22;1604;53.700;10.252;2023-05-23T17:10:59;13.60;87.90
3186;DHT22;1604;53.700;10.252;2023-05-23T17:14:01;13.70;87.80
3186;DHT22;1604;53.700;10.252;2023-05-23T17:17:04;13.60;85.90
3186;DHT22;1604;53.700;10.252;2023-05-23T17:20:09;13.50;84.20
3186;DHT22;1604;53.700;10.252;2023-05-23T17:23:11;13.40;84.40
3186;DHT22;1604;53.700;10.252;2023-05-23T17:26:13;13.40;86.90
3186;DHT22;1604;53.700;10.252;2023-05-23T17:29:15;13.40;87.80
3186;DHT22;1604;53.700;10.252;2023-05-23T17:32:19;13.40;86.80
3186;DHT22;1604;53.700;10.252;2023-05-23T17:35:21;13.40;84.50
3186;DHT22;1604;53.700;10.252;2023-05-23T17:38:24;13.30;84.90
3186;DHT22;1604;53.700;10.252;2023-05-23T17:41:26;13.20;85.70
3186;DHT22;1604;53.700;10.252;2023-05-23T17:44:28;13.10;86.70
3186;DHT22;1604;53.700;10.252;2023-05-23T17:47:31;13.00;87.00
3186;DHT22;1604;53.700;10.252;2023-05-23T17:50:33;13.00;87.70
3186;DHT22;1604;53.700;10.252;2023-05-23T17:53:35;12.90;89.00
3186;DHT22;1604;53.700;10.252;2023-05-23T17:56:41;12.80;88.70
3186;DHT22;1604;53.700;10.252;2023-05-23T17:59:43;12.70;89.60
3186;DHT22;1604;53.700;10.252;2023-05-23T18:02:46;12.60;89.90
3186;DHT22;1604;53.700;10.252;2023-05-23T18:05:48;12.60;89.80
3186;DHT22;1604;53.700;10.252;2023-05-23T18:08:50;12.50;89.60
3186;DHT22;1604;53.700;10.252;2023-05-23T18:11:53;12.40;89.60
3186;DHT22;1604;53.700;10.252;2023-05-23T18:14:55;12.30;90.40
3186;DHT22;1604;53.700;10.252;2023-05-23T18:17:59;12.30;90.40
3186;DHT22;1604;53.700;10.252;2023-05-23T18:21:00;12.10;91.50
3186;DHT22;1604;53.700;10.252;2023-05-23T18:24:03;12.10;91.70
3186;DHT22;1604;53.700;10.252;2023-05-23T18:27:05;12.00;92.40
3186;DHT22;1604;53.700;10.252;2023-05-23T18:30:08;12.00;92.70
3186;DHT22;1604;53.700;10.252;2023-05-23T18:33:11;11.90;93.00
3186;DHT22;1604;53.700;10.252;2023-05-23T18:36:13;11.90;93.50
3186;DHT22;1604;53.700;10.252;2023-05-23T18:39:15;11.80;93.40
3186;DHT22;1604;53.700;10.252;2023-05-23T18:42:18;11.80;94.10
3186;DHT22;1604;53.700;10.252;2023-05-23T18:45:20;11.70;93.90
3186;DHT22;1604;53.700;10.252;2023-05-23T18:48:23;11.70;94.00
3186;DHT22;1604;53.700;10.252;2023-05-23T18:51:26;11.60;94.10
3186;DHT22;1604;53.700;10.252;2023-05-23T18:54:28;11.60;94.70
3186;DHT22;1604;53.700;10.252;2023-05-23T18:57:30;11.50;95.30
3186;DHT22;1604;53.700;10.252;2023-05-23T19:00:32;11.50;95.20
3186;DHT22;1604;53.700;10.252;2023-05-23T19:03:35;11.50;94.90
3186;DHT22;1604;53.700;10.252;2023-05-23T19:06:37;11.40;94.60
3186;DHT22;1604;53.700;10.252;2023-05-23T19:09:39;11.40;95.00
3186;DHT22;1604;53.700;10.252;2023-05-23T19:12:41;11.30;94.60
3186;DHT22;1604;53.700;10.252;2023-05-23T19:15:43;11.30;94.40
3186;DHT22;1604;53.700;10.252;2023-05-23T19:18:47;11.20;95.00
3186;DHT22;1604;53.700;10.252;2023-05-23T19:21:49;11.20;94.90
3186;DHT22;1604;53.700;10.252;2023-05-23T19:24:51;11.20;95.10
3186;DHT22;1604;53.700;10.252;2023-05-23T19:27:53;11.10;95.40
3186;DHT22;1604;53.700;10.252;2023-05-23T19:30:55;11.10;95.50
3186;DHT22;1604;53.700;10.252;2023-05-23T19:33:58;11.10;95.70
3186;DHT22;1604;53.700;10.252;2023-05-23T19:37:00;11.10;96.10